createdAt,value
2019-05-02T00:00:09.853Z,14.10
2019-05-02T00:02:38.534Z,13.13
2019-05-02T00:05:09.705Z,15.97
2019-05-02T00:07:38.545Z,15.37
2019-05-02T00:10:09.816Z,13.80
2019-05-02T00:12:38.174Z,14.87
2019-05-02T00:15:08.165Z,14.10
2019-05-02T00:17:36.431Z,14.03
2019-05-02T00:20:08.821Z,14.33
2019-05-02T00:22:38.114Z,14.60
2019-05-02T00:25:10.998Z,14.77
2019-05-02T00:27:38.938Z,13.47
2019-05-02T00:30:09.175Z,13.57
2019-05-02T00:32:37.452Z,14.07
2019-05-02T00:35:06.721Z,14.70
2019-05-02T00:37:35.088Z,14.40
2019-05-02T00:40:06.285Z,14.03
2019-05-02T00:42:35.598Z,14.33
2019-05-02T00:45:04.745Z,13.80
2019-05-02T00:47:42.203Z,13.87
2019-05-02T00:50:12.484Z,14.00
2019-05-02T00:52:40.840Z,13.70
2019-05-02T00:55:09.173Z,13.87
2019-05-02T00:57:37.567Z,14.67
2019-05-02T01:00:06.480Z,14.37
2019-05-02T01:02:49.141Z,17.83
2019-05-02T01:05:19.493Z,16.60
2019-05-02T01:07:48.918Z,16.20
2019-05-02T01:10:21.231Z,15.97
2019-05-02T01:12:49.137Z,14.90
2019-05-02T01:15:17.525Z,15.90
2019-05-02T01:17:52.727Z,17.10
2019-05-02T01:20:22.289Z,16.73
2019-05-02T01:22:53.534Z,15.87
2019-05-02T01:25:21.819Z,17.30
2019-05-02T01:27:57.423Z,17.20
2019-05-02T01:30:43.817Z,17.23
2019-05-02T01:33:19.501Z,16.70
2019-05-02T01:35:49.418Z,19.47
2019-05-02T01:38:26.461Z,17.13
2019-05-02T01:40:54.690Z,18.80
2019-05-02T01:43:25.688Z,18.20
2019-05-02T01:45:54.199Z,18.13
2019-05-02T01:48:23.723Z,17.37
2019-05-02T01:50:53.892Z,19.40
2019-05-02T01:53:22.552Z,18.07
2019-05-02T01:55:56.882Z,18.00
2019-05-02T01:58:23.055Z,19.40
2019-05-02T02:00:51.324Z,19.30
2019-05-02T02:03:19.684Z,20.00
2019-05-02T02:05:48.071Z,19.70
2019-05-02T02:08:16.347Z,19.77
2019-05-02T02:10:44.636Z,20.00
2019-05-02T02:13:12.889Z,21.00
2019-05-02T02:15:41.183Z,20.80
2019-05-02T02:18:09.464Z,19.17
2019-05-02T02:20:49.013Z,19.63
2019-05-02T02:23:25.874Z,19.87
2019-05-02T02:25:55.791Z,19.80
2019-05-02T02:28:25.090Z,18.20
2019-05-02T02:30:57.793Z,18.33
2019-05-02T02:33:23.371Z,18.57
2019-05-02T02:35:52.185Z,18.93
2019-05-02T02:38:20.502Z,18.13
2019-05-02T02:40:49.766Z,19.63
2019-05-02T02:43:33.339Z,17.53
2019-05-02T02:46:02.817Z,20.50
2019-05-02T02:48:33.516Z,18.80
2019-05-02T02:51:01.971Z,18.30
2019-05-02T02:53:30.411Z,19.77
2019-05-02T02:56:03.930Z,19.53
2019-05-02T02:58:44.251Z,21.27
2019-05-02T03:01:03.020Z,21.40
2019-05-02T03:03:34.951Z,20.83
2019-05-02T03:06:05.579Z,21.37
2019-05-02T03:08:31.392Z,23.67
2019-05-02T03:11:00.124Z,21.67
2019-05-02T03:13:30.134Z,21.60
2019-05-02T03:16:14.793Z,22.47
2019-05-02T03:18:43.443Z,25.30
2019-05-02T03:21:13.480Z,22.40
2019-05-02T03:23:42.768Z,25.17
2019-05-02T03:26:14.973Z,23.10
2019-05-02T03:28:41.116Z,24.03
2019-05-02T03:31:24.402Z,24.33
2019-05-02T03:33:53.708Z,21.93
2019-05-02T03:36:25.845Z,22.90
2019-05-02T03:38:40.968Z,23.17
2019-05-02T03:41:13.667Z,25.33
2019-05-02T03:43:40.804Z,25.90
2019-05-02T03:46:13.557Z,25.90
2019-05-02T03:48:39.228Z,25.40
2019-05-02T03:51:19.903Z,26.60
2019-05-02T03:53:37.674Z,28.43
2019-05-02T03:56:11.672Z,28.97
2019-05-02T03:58:36.276Z,26.40
2019-05-02T04:01:04.758Z,26.80
2019-05-02T04:03:33.882Z,27.63
2019-05-02T04:06:03.123Z,27.17
2019-05-02T04:08:31.530Z,27.23
2019-05-02T04:11:15.112Z,26.70
2019-05-02T04:13:43.456Z,25.90
2019-05-02T04:16:15.380Z,28.43
2019-05-02T04:18:41.888Z,25.30
2019-05-02T04:21:10.406Z,29.00
2019-05-02T04:23:38.740Z,28.20
2019-05-02T04:26:12.693Z,28.57
2019-05-02T04:28:38.354Z,27.77
2019-05-02T04:31:08.599Z,28.23
2019-05-02T04:33:36.888Z,28.80
2019-05-02T04:36:13.468Z,28.50
2019-05-02T04:38:46.573Z,27.10
2019-05-02T04:41:09.295Z,29.60
2019-05-02T04:43:43.109Z,27.43
2019-05-02T04:46:12.100Z,27.90
2019-05-02T04:48:44.276Z,28.10
2019-05-02T04:51:14.190Z,28.93
2019-05-02T04:53:42.283Z,26.50
2019-05-02T04:56:10.601Z,29.97
2019-05-02T04:58:40.693Z,28.00
2019-05-02T05:01:10.117Z,27.27
2019-05-02T05:03:40.567Z,27.40
2019-05-02T05:06:12.241Z,27.80
2019-05-02T05:08:41.559Z,27.77
2019-05-02T05:11:08.872Z,29.60
2019-05-02T05:13:37.550Z,27.90
2019-05-02T05:16:08.639Z,28.20
2019-05-02T05:18:38.021Z,29.80
2019-05-02T05:21:10.335Z,30.33
2019-05-02T05:23:38.274Z,29.83
2019-05-02T05:26:07.300Z,30.40
2019-05-02T05:28:40.550Z,31.80
2019-05-02T05:31:07.656Z,34.50
2019-05-02T05:33:37.786Z,44.43
2019-05-02T05:36:08.419Z,50.97
2019-05-02T05:38:40.463Z,50.73
2019-05-02T05:41:09.059Z,52.20
2019-05-02T05:43:39.274Z,51.17
2019-05-02T05:46:12.334Z,49.30
2019-05-02T05:48:40.805Z,47.27
2019-05-02T05:51:11.842Z,46.63
2019-05-02T05:53:37.702Z,48.23
2019-05-02T05:56:07.950Z,47.60
2019-05-02T05:58:39.865Z,49.70
2019-05-02T06:01:10.122Z,49.50
2019-05-02T06:03:41.998Z,48.40
2019-05-02T06:06:10.024Z,48.60
2019-05-02T06:08:37.856Z,49.97
2019-05-02T06:11:06.493Z,49.50
2019-05-02T06:13:36.559Z,47.07
2019-05-02T06:16:04.867Z,51.73
2019-05-02T06:18:36.235Z,47.43
2019-05-02T06:21:08.574Z,48.40
2019-05-02T06:23:36.391Z,49.90
2019-05-02T06:26:08.024Z,49.03
2019-05-02T06:28:36.339Z,45.90
2019-05-02T06:31:07.249Z,49.10
2019-05-02T06:33:34.454Z,47.03
2019-05-02T06:36:04.090Z,47.40
2019-05-02T06:38:33.469Z,46.30
2019-05-02T06:41:03.784Z,44.27
2019-05-02T06:43:46.509Z,45.93
2019-05-02T06:46:16.555Z,44.30
2019-05-02T06:48:48.216Z,45.80
2019-05-02T06:51:19.642Z,45.50
2019-05-02T06:53:46.956Z,44.47
2019-05-02T06:56:19.727Z,45.93
2019-05-02T06:58:49.670Z,46.53
2019-05-02T07:01:21.413Z,46.47
2019-05-02T07:03:51.873Z,49.70
2019-05-02T07:06:20.350Z,50.27
2019-05-02T07:08:48.939Z,48.17
2019-05-02T07:11:17.317Z,51.07
2019-05-02T07:13:45.584Z,51.73
2019-05-02T07:16:30.295Z,50.90
2019-05-02T07:18:49.701Z,53.40
2019-05-02T07:21:23.255Z,54.10
2019-05-02T07:23:48.608Z,53.13
2019-05-02T07:26:21.081Z,52.23
2019-05-02T07:28:48.382Z,53.40
2019-05-02T07:31:16.667Z,53.67
2019-05-02T07:33:53.810Z,53.67
2019-05-02T07:36:22.075Z,52.27
2019-05-02T07:38:50.376Z,54.63
2019-05-02T07:41:18.775Z,52.40
2019-05-02T07:43:47.042Z,52.97
2019-05-02T07:46:16.141Z,51.93
2019-05-02T07:48:48.883Z,52.73
2019-05-02T07:51:17.244Z,56.30
2019-05-02T07:53:48.560Z,53.77
2019-05-02T07:56:17.636Z,58.20
2019-05-02T07:58:47.972Z,56.07
2019-05-02T08:01:15.624Z,59.17
2019-05-02T08:03:44.928Z,59.00
2019-05-02T08:06:13.263Z,57.70
2019-05-02T08:08:41.554Z,56.20
2019-05-02T08:11:09.872Z,60.63
2019-05-02T08:13:38.260Z,58.60
2019-05-02T08:16:06.611Z,58.90
2019-05-02T08:18:34.881Z,57.57
2019-05-02T08:21:03.162Z,57.30
2019-05-02T08:23:31.421Z,59.87
2019-05-02T08:25:59.686Z,56.60
2019-05-02T08:28:47.056Z,58.33
2019-05-02T08:31:18.863Z,58.07
2019-05-02T08:33:44.728Z,57.47
2019-05-02T08:36:13.033Z,58.50
2019-05-02T08:38:41.297Z,58.13
2019-05-02T08:41:09.563Z,59.70
2019-05-02T08:43:40.139Z,58.80
2019-05-02T08:46:14.457Z,61.50
2019-05-02T08:48:43.716Z,58.13
2019-05-02T08:51:13.135Z,56.80
2019-05-02T08:53:41.392Z,58.53
2019-05-02T08:56:09.662Z,55.73
2019-05-02T08:58:37.986Z,57.50
2019-05-02T09:01:09.260Z,57.87
2019-05-02T09:03:54.654Z,58.80
2019-05-02T09:06:06.587Z,55.70
2019-05-02T09:08:35.415Z,59.63
2019-05-02T09:11:03.694Z,56.40
2019-05-02T09:13:33.041Z,57.70
2019-05-02T09:16:05.658Z,54.17
2019-05-02T09:18:38.801Z,53.27
2019-05-02T09:21:02.097Z,55.73
2019-05-02T09:23:33.151Z,57.33
2019-05-02T09:26:08.949Z,55.47
2019-05-02T09:29:00.614Z,52.73
2019-05-02T09:31:26.132Z,52.53
2019-05-02T09:33:55.770Z,54.83
2019-05-02T09:36:24.377Z,55.17
2019-05-02T09:38:58.522Z,54.27
2019-05-02T09:41:32.446Z,49.70
2019-05-02T09:43:59.582Z,45.47
2019-05-02T09:46:28.906Z,46.60
2019-05-02T09:49:01.758Z,44.60
2019-05-02T09:51:27.642Z,48.20
2019-05-02T09:53:57.083Z,47.30
2019-05-02T09:56:27.939Z,36.73
2019-05-02T09:59:04.785Z,40.93
2019-05-02T10:01:36.283Z,41.10
2019-05-02T10:04:05.005Z,43.50
2019-05-02T10:06:34.356Z,42.87
2019-05-02T10:09:03.734Z,42.37
2019-05-02T10:11:33.532Z,40.20
2019-05-02T10:14:04.220Z,40.80
2019-05-02T10:16:32.850Z,42.93
2019-05-02T10:19:09.572Z,42.20
2019-05-02T10:21:32.234Z,41.83
2019-05-02T10:24:01.858Z,43.70
2019-05-02T10:26:32.958Z,43.70
2019-05-02T10:29:03.913Z,39.73
2019-05-02T10:31:37.304Z,40.10
2019-05-02T10:34:02.432Z,37.70
2019-05-02T10:36:32.549Z,36.77
2019-05-02T10:39:01.787Z,39.10
2019-05-02T10:41:33.540Z,43.03
2019-05-02T10:44:02.182Z,40.10
2019-05-02T10:46:37.406Z,42.80
2019-05-02T10:49:03.940Z,38.50
2019-05-02T10:51:35.345Z,38.20
2019-05-02T10:54:05.169Z,37.53
2019-05-02T10:56:33.551Z,35.97
2019-05-02T10:59:02.303Z,30.10
2019-05-02T11:01:32.401Z,35.07
2019-05-02T11:04:04.859Z,37.47
2019-05-02T11:06:37.243Z,31.87
2019-05-02T11:09:06.304Z,31.60
2019-05-02T11:11:33.465Z,36.30
2019-05-02T11:14:09.063Z,33.90
2019-05-02T11:16:52.462Z,35.17
2019-05-02T11:19:38.668Z,32.07
2019-05-02T11:22:07.122Z,27.93
2019-05-02T11:24:36.336Z,26.77
2019-05-02T11:27:04.819Z,24.83
2019-05-02T11:29:33.109Z,27.80
2019-05-02T11:32:02.781Z,28.00
2019-05-02T11:34:32.683Z,27.43
2019-05-02T11:37:01.738Z,29.03
2019-05-02T11:39:37.328Z,29.50
2019-05-02T11:42:02.064Z,29.60
2019-05-02T11:44:32.685Z,31.27
2019-05-02T11:47:02.007Z,32.00
2019-05-02T11:49:32.006Z,32.60
2019-05-02T11:52:03.883Z,30.13
2019-05-02T11:54:31.959Z,30.30
2019-05-02T11:57:02.173Z,33.10
2019-05-02T11:59:32.002Z,28.20
2019-05-02T12:02:04.620Z,27.57
2019-05-02T12:04:32.948Z,23.17
2019-05-02T12:07:04.736Z,23.83
2019-05-02T12:09:32.188Z,26.17
2019-05-02T12:12:04.383Z,24.33
2019-05-02T12:14:36.236Z,23.30
2019-05-02T12:17:02.758Z,27.20
2019-05-02T12:19:32.234Z,27.17
2019-05-02T12:22:02.535Z,24.90
2019-05-02T12:24:31.951Z,24.20
2019-05-02T12:27:02.426Z,23.93
2019-05-02T12:29:30.498Z,24.77
2019-05-02T12:31:58.781Z,29.13
2019-05-02T12:34:27.125Z,28.77
2019-05-02T12:36:55.519Z,28.80
2019-05-02T12:39:23.863Z,28.77
2019-05-02T12:41:53.646Z,27.50
2019-05-02T12:44:22.383Z,27.70
2019-05-02T12:46:51.761Z,27.07
2019-05-02T12:49:25.303Z,29.53
2019-05-02T12:51:52.300Z,26.50
2019-05-02T12:54:22.311Z,28.50
2019-05-02T12:56:52.633Z,29.63
2019-05-02T12:59:22.551Z,28.60
2019-05-02T13:01:51.856Z,30.83
2019-05-02T13:04:22.960Z,30.03
2019-05-02T13:06:53.086Z,28.37
2019-05-02T13:09:23.409Z,28.57
2019-05-02T13:11:56.149Z,27.13
2019-05-02T13:14:26.163Z,26.93
2019-05-02T13:17:01.524Z,26.17
2019-05-02T13:19:37.267Z,26.83
2019-05-02T13:22:12.443Z,26.07
2019-05-02T13:24:47.000Z,26.50
2019-05-02T13:27:16.586Z,22.20
2019-05-02T13:29:45.000Z,20.43
2019-05-02T13:32:18.940Z,22.60
2019-05-02T13:34:57.052Z,22.47
2019-05-02T13:37:25.283Z,20.67
2019-05-02T13:40:13.162Z,21.60
2019-05-02T13:42:41.844Z,19.50
2019-05-02T13:45:14.830Z,18.87
2019-05-02T13:47:44.126Z,19.80
2019-05-02T13:50:12.980Z,19.17
2019-05-02T13:52:45.221Z,18.13
2019-05-02T13:55:13.126Z,19.33
2019-05-02T13:57:46.202Z,19.10
2019-05-02T14:00:14.512Z,21.00
2019-05-02T14:02:43.374Z,21.50
2019-05-02T14:05:14.085Z,21.60
2019-05-02T14:07:48.205Z,23.73
2019-05-02T14:10:22.884Z,21.37
2019-05-02T14:12:53.874Z,22.13
2019-05-02T14:15:23.788Z,23.87
2019-05-02T14:17:52.579Z,24.97
2019-05-02T14:20:22.427Z,25.47
2019-05-02T14:22:52.762Z,24.90
2019-05-02T14:25:22.338Z,27.03
2019-05-02T14:27:53.751Z,26.87
2019-05-02T14:30:35.435Z,25.47
2019-05-02T14:32:53.170Z,25.20
2019-05-02T14:35:28.183Z,24.93
2019-05-02T14:38:09.788Z,23.37
2019-05-02T14:40:49.023Z,24.37
2019-05-02T14:43:37.995Z,24.37
2019-05-02T14:46:05.163Z,24.83
2019-05-02T14:48:41.601Z,24.90
2019-05-02T14:51:12.004Z,24.80
2019-05-02T14:53:43.054Z,24.07
2019-05-02T14:56:13.031Z,24.23
2019-05-02T14:58:42.722Z,24.40
2019-05-02T15:01:16.908Z,24.50
2019-05-02T15:03:42.318Z,22.50
2019-05-02T15:06:11.798Z,20.07
2019-05-02T15:08:42.028Z,19.43
2019-05-02T15:11:10.043Z,20.97
2019-05-02T15:13:40.930Z,21.40
2019-05-02T15:16:12.334Z,20.47
2019-05-02T15:18:38.587Z,20.60
2019-05-02T15:21:12.152Z,21.07
2019-05-02T15:23:44.120Z,19.90
2019-05-02T15:26:16.162Z,20.50
2019-05-02T15:28:44.916Z,18.53
2019-05-02T15:31:18.964Z,19.83
2019-05-02T15:33:49.155Z,19.97
2019-05-02T15:36:17.417Z,18.60
2019-05-02T15:38:47.410Z,16.60
2019-05-02T15:41:15.871Z,15.97
2019-05-02T15:43:49.066Z,15.97
2019-05-02T15:46:15.797Z,14.60
2019-05-02T15:48:44.531Z,14.80
2019-05-02T15:51:13.001Z,13.47
2019-05-02T15:53:44.690Z,13.23
2019-05-02T15:56:19.914Z,14.83
2019-05-02T15:58:43.014Z,13.20
2019-05-02T16:01:22.556Z,12.13
2019-05-02T16:03:55.172Z,12.93
2019-05-02T16:06:30.391Z,12.57
2019-05-02T16:08:54.456Z,11.83
2019-05-02T16:11:23.071Z,11.40
2019-05-02T16:13:55.706Z,11.97
2019-05-02T16:16:22.486Z,12.00
2019-05-02T16:18:52.583Z,11.37
2019-05-02T16:21:28.886Z,11.67
2019-05-02T16:24:14.789Z,10.57
2019-05-02T16:26:46.796Z,10.33
2019-05-02T16:29:23.714Z,9.60
2019-05-02T16:31:55.052Z,10.33
2019-05-02T16:34:22.610Z,9.80
2019-05-02T16:36:52.432Z,9.87
2019-05-02T16:39:21.928Z,9.30
2019-05-02T16:41:56.009Z,9.53
2019-05-02T16:44:24.301Z,11.23
2019-05-02T16:46:54.326Z,12.80
2019-05-02T17:26:58.707Z,12.63
2019-05-02T18:23:05.980Z,10.27
2019-05-02T18:25:34.486Z,8.57
2019-05-02T18:28:03.854Z,8.93
2019-05-02T18:30:32.180Z,8.37
2019-05-02T18:33:05.264Z,8.27
2019-05-02T18:35:32.560Z,7.07
2019-05-02T18:38:02.638Z,7.83
2019-05-02T18:40:32.102Z,7.87
2019-05-02T18:43:02.003Z,7.50
2019-05-02T18:45:31.862Z,7.70
2019-05-02T18:48:06.437Z,7.67
2019-05-02T18:50:36.920Z,7.90
2019-05-02T18:53:07.117Z,8.00
2019-05-02T18:55:35.494Z,7.40
2019-05-02T18:58:05.513Z,7.87
2019-05-02T19:00:38.319Z,7.93
2019-05-02T19:03:07.514Z,7.07
2019-05-02T19:05:35.660Z,8.00
2019-05-02T19:08:04.077Z,12.13
2019-05-02T19:10:32.492Z,13.27
2019-05-02T19:13:04.423Z,14.00
2019-05-02T19:15:34.386Z,15.40
2019-05-02T19:18:02.636Z,15.23
2019-05-02T19:20:37.098Z,15.73
2019-05-02T19:23:05.508Z,17.17
2019-05-02T19:25:33.940Z,14.07
2019-05-02T19:28:03.853Z,14.57
2019-05-02T19:30:33.833Z,14.57
2019-05-02T19:33:03.657Z,13.60
2019-05-02T19:35:32.772Z,16.00
2019-05-02T19:38:02.561Z,17.20
2019-05-02T19:40:31.849Z,17.67
2019-05-02T19:43:05.911Z,18.30
2019-05-02T19:45:32.567Z,17.43
2019-05-02T19:48:02.652Z,18.60
2019-05-02T19:50:41.587Z,18.60
2019-05-02T19:53:14.871Z,20.00
2019-05-02T19:55:37.007Z,21.63
2019-05-02T19:58:06.525Z,19.77
2019-05-02T20:00:36.534Z,22.40
2019-05-02T20:03:05.820Z,21.67
2019-05-02T20:05:34.411Z,24.10
2019-05-02T20:08:02.762Z,23.60
2019-05-02T20:10:32.324Z,23.47
2019-05-02T20:13:02.911Z,23.57
2019-05-02T20:15:33.639Z,22.70
2019-05-02T20:18:04.661Z,27.07
2019-05-02T20:20:44.739Z,23.43
2019-05-02T20:23:17.911Z,24.37
2019-05-02T20:25:43.316Z,24.80
2019-05-02T20:28:11.933Z,23.70
2019-05-02T20:30:42.121Z,23.63
2019-05-02T20:33:12.720Z,23.37
2019-05-02T20:35:42.182Z,23.50
2019-05-02T20:38:11.748Z,22.60
2019-05-02T20:40:42.521Z,22.00
2019-05-02T20:43:12.148Z,20.47
2019-05-02T20:45:40.557Z,20.27
2019-05-02T20:48:08.878Z,21.20
2019-05-02T20:50:37.184Z,21.30
2019-05-02T20:53:05.532Z,21.10
2019-05-02T20:55:33.818Z,19.07
2019-05-02T20:58:03.022Z,17.37
2019-05-02T21:00:32.314Z,16.70
2019-05-02T21:03:02.651Z,14.27
2019-05-02T21:05:32.697Z,12.53
2019-05-02T21:08:19.118Z,12.97
2019-05-02T21:10:49.241Z,11.83
2019-05-02T21:13:17.597Z,11.30
2019-05-02T21:15:46.980Z,10.80
2019-05-02T21:18:15.257Z,8.57
2019-05-02T21:20:43.527Z,8.60
2019-05-02T21:23:12.867Z,8.27
2019-05-02T21:25:41.710Z,8.87
2019-05-02T21:28:11.835Z,7.33
2019-05-02T21:30:41.632Z,7.17
2019-05-02T21:33:38.384Z,7.63
2019-05-02T21:36:07.045Z,6.60
2019-05-02T21:38:35.367Z,6.80
2019-05-02T21:41:06.603Z,6.17
2019-05-02T21:43:35.897Z,5.97
2019-05-02T21:46:06.254Z,6.00
2019-05-02T21:48:34.508Z,5.10
2019-05-02T21:51:13.101Z,5.80
2019-05-02T21:53:54.966Z,5.77
2019-05-02T21:56:32.308Z,6.40
2019-05-02T21:59:08.069Z,5.50
2019-05-02T22:01:43.921Z,5.80
2019-05-02T22:04:13.085Z,6.30
2019-05-02T22:06:42.717Z,6.40
2019-05-02T22:09:12.270Z,6.80
2019-05-02T22:11:42.926Z,6.97
2019-05-02T22:14:13.380Z,6.80
2019-05-02T22:16:42.061Z,6.40
2019-05-02T22:19:10.590Z,6.77
2019-05-02T22:21:38.979Z,7.27
2019-05-02T22:24:11.168Z,7.30
2019-05-02T22:26:37.343Z,7.30
2019-05-02T22:29:05.635Z,6.63
2019-05-02T22:31:34.039Z,7.30
2019-05-02T22:34:02.445Z,6.97
2019-05-02T22:36:32.462Z,6.83
2019-05-02T22:39:02.462Z,6.73
2019-05-02T22:41:32.537Z,7.60
2019-05-02T22:44:01.948Z,7.47
2019-05-02T22:46:43.800Z,7.73
2019-05-02T22:49:14.616Z,7.27
2019-05-02T22:51:43.479Z,7.40
2019-05-02T22:54:24.114Z,7.83
2019-05-02T22:56:42.649Z,7.77
2019-05-02T22:59:10.984Z,7.50
2019-05-02T23:01:39.324Z,7.30
2019-05-02T23:04:07.594Z,7.10
2019-05-02T23:06:36.794Z,7.97
2019-05-02T23:09:07.214Z,6.60
2019-05-02T23:11:35.644Z,7.50
2019-05-02T23:14:04.642Z,8.47
2019-05-02T23:16:34.603Z,8.83
2019-05-02T23:19:03.229Z,7.90
2019-05-02T23:21:32.501Z,8.33
2019-05-02T23:24:02.660Z,8.23
2019-05-02T23:26:35.359Z,7.87
2019-05-02T23:29:05.355Z,7.30
2019-05-02T23:31:33.619Z,8.00
2019-05-02T23:34:02.238Z,7.50
2019-05-02T23:36:32.603Z,7.90
2019-05-02T23:39:01.923Z,7.80
2019-05-02T23:41:30.393Z,8.50
2019-05-02T23:43:58.819Z,8.43
2019-05-02T23:46:27.077Z,7.40
2019-05-02T23:48:56.360Z,6.80
2019-05-02T23:51:24.669Z,7.17
2019-05-02T23:53:53.044Z,7.20
2019-05-02T23:56:22.104Z,8.20
2019-05-02T23:58:51.990Z,8.03
